Main page
METAR-TAF:

METAR-TAF

Airports :

Oil platform

K13-a, Netherlands

latitude: 53-13-04N, longitude: 3-13-13E, elevation: 31 m

Current weather observation

The report was made 30 minutes ago, at 23:55 UTC
Calm wind
Temperature 13°C
Humidity 67%
Pressure 996 hPa

METAR: EHJR 252355Z AUTO 00000KT //// // ///////// 13/07 Q0996 RE// W14/H19

Time: 01:25 (00:25 UTC)


TAF: missing

Weather observations and forecasts of more than 4000 airports (METAR and TAF reports).

The available stations are represented by yellow and red dots on the map.

Hover mouse over dot to see the name of the station.

Then click to see weather observations and forecasts.

To change the map : click on the green buttons with a black cross to zoom in, on the green button with a dash to zoom out, or on the green arrows for adjacent maps.


METAR-TAF: